createdAt,value
2023-11-22T00:01:35.781Z,101324.71
2023-11-22T00:04:05.064Z,101314.98
2023-11-22T00:06:33.046Z,101315.85
2023-11-22T00:09:00.888Z,101314.64
2023-11-22T00:11:29.123Z,101309.17
2023-11-22T00:13:58.601Z,101311.96
2023-11-22T00:16:27.075Z,101301.87
2023-11-22T00:18:54.917Z,101296.37
2023-11-22T00:21:23.042Z,101294.92
2023-11-22T00:23:51.062Z,101295.77
2023-11-22T00:26:19.198Z,101294.33
2023-11-22T00:28:50.915Z,101285.22
2023-11-22T00:31:19.116Z,101281.14
2023-11-22T00:33:47.994Z,101277.34
2023-11-22T00:36:17.867Z,101270.90
2023-11-22T00:38:46.988Z,101254.56
2023-11-22T00:41:16.251Z,101249.75
2023-11-22T00:43:44.350Z,101261.73
2023-11-22T00:46:12.549Z,101263.69
2023-11-22T00:48:40.596Z,101272.27
2023-11-22T00:51:10.349Z,101272.27
2023-11-22T00:53:38.260Z,101263.66
2023-11-22T00:56:07.930Z,101268.70
2023-11-22T00:58:35.843Z,101264.15
2023-11-22T01:01:03.867Z,101268.02
2023-11-22T01:03:31.884Z,101266.79
2023-11-22T01:05:59.756Z,101269.03
2023-11-22T01:08:27.611Z,101268.73
2023-11-22T01:10:55.638Z,101271.80
2023-11-22T01:13:23.750Z,101269.52
2023-11-22T01:15:51.834Z,101270.90
2023-11-22T01:18:20.608Z,101263.54
2023-11-22T01:20:48.696Z,101260.56
2023-11-22T01:23:16.848Z,101259.77
2023-11-22T01:25:47.502Z,101255.72
2023-11-22T01:28:16.070Z,101250.31
2023-11-22T01:30:47.989Z,101256.02
2023-11-22T01:33:17.223Z,101268.98
2023-11-22T01:35:45.106Z,101268.00
2023-11-22T01:38:13.021Z,101270.52
2023-11-22T01:40:48.021Z,101270.49
2023-11-22T01:43:19.822Z,101271.63
2023-11-22T01:45:53.008Z,101273.99
2023-11-22T01:48:21.083Z,101274.52
2023-11-22T01:50:49.469Z,101276.00
2023-11-22T01:53:20.104Z,101281.75
2023-11-22T01:55:48.282Z,101279.52
2023-11-22T01:58:16.390Z,101280.63
2023-11-22T02:00:59.214Z,101282.11
2023-11-22T02:03:27.751Z,101281.52
2023-11-22T02:05:56.194Z,101284.52
2023-11-22T02:08:24.291Z,101287.00
2023-11-22T02:11:02.917Z,101280.23
2023-11-22T02:13:34.453Z,101272.92
2023-11-22T02:16:03.312Z,101279.92
2023-11-22T02:18:31.674Z,101278.80
2023-11-22T02:20:59.559Z,101286.77
2023-11-22T02:23:28.133Z,101282.88
2023-11-22T02:25:56.663Z,101281.45
2023-11-22T02:28:24.492Z,101274.26
2023-11-22T02:30:53.094Z,101281.73
2023-11-22T02:33:20.944Z,101281.08
2023-11-22T02:35:49.251Z,101286.49
2023-11-22T02:38:19.610Z,101282.38
2023-11-22T02:40:47.553Z,101284.33
2023-11-22T02:43:15.381Z,101278.89
2023-11-22T02:45:45.603Z,101280.15
2023-11-22T02:48:15.081Z,101275.41
2023-11-22T02:50:45.183Z,101271.90
2023-11-22T02:53:14.073Z,101263.22
2023-11-22T02:55:42.317Z,101265.86
2023-11-22T02:58:10.245Z,101271.98
2023-11-22T03:00:38.638Z,101273.25
2023-11-22T03:03:11.593Z,101270.55
2023-11-22T03:05:39.780Z,101274.39
2023-11-22T03:08:09.060Z,101277.04
2023-11-22T03:10:38.235Z,101280.02
2023-11-22T03:13:06.778Z,101271.30
2023-11-22T03:15:35.052Z,101276.21
2023-11-22T03:18:03.407Z,101280.77
2023-11-22T03:20:32.560Z,101283.44
2023-11-22T03:23:01.692Z,101281.63
2023-11-22T03:25:30.780Z,101290.84
2023-11-22T03:27:58.902Z,101296.73
2023-11-22T03:30:27.082Z,101298.46
2023-11-22T03:32:55.922Z,101293.54
2023-11-22T03:35:28.889Z,101293.80
2023-11-22T03:37:57.123Z,101296.64
2023-11-22T03:40:25.319Z,101296.42
2023-11-22T03:42:53.473Z,101296.65
2023-11-22T03:45:21.589Z,101294.77
2023-11-22T03:47:49.448Z,101286.06
2023-11-22T03:50:17.752Z,101287.15
2023-11-22T03:52:45.761Z,101297.02
2023-11-22T03:55:14.346Z,101297.61
2023-11-22T03:57:42.633Z,101291.80
2023-11-22T04:00:13.472Z,101288.43
2023-11-22T04:02:41.671Z,101289.71
2023-11-22T04:05:10.828Z,101291.46
2023-11-22T04:07:40.778Z,101284.95
2023-11-22T04:10:09.231Z,101279.44
2023-11-22T04:12:38.223Z,101283.23
2023-11-22T04:15:11.053Z,101278.70
2023-11-22T04:17:40.521Z,101279.86
2023-11-22T04:20:16.537Z,101286.40
2023-11-22T04:22:49.458Z,101288.49
2023-11-22T04:25:17.728Z,101286.77
2023-11-22T04:27:45.819Z,101284.69
2023-11-22T04:30:15.749Z,101285.41
2023-11-22T04:32:44.093Z,101284.80
2023-11-22T04:35:12.502Z,101292.02
2023-11-22T04:37:40.439Z,101292.58
2023-11-22T04:40:09.416Z,101297.27
2023-11-22T04:42:38.531Z,101303.55
2023-11-22T04:45:08.343Z,101308.64
2023-11-22T04:47:36.730Z,101311.09
2023-11-22T04:50:06.135Z,101311.30
2023-11-22T04:52:34.207Z,101314.61
2023-11-22T04:55:02.170Z,101319.48
2023-11-22T04:57:30.356Z,101321.92
2023-11-22T04:59:58.615Z,101323.31
2023-11-22T05:02:28.395Z,101324.38
2023-11-22T05:04:56.302Z,101330.97
2023-11-22T05:07:27.368Z,101334.58
2023-11-22T05:10:03.940Z,101331.54
2023-11-22T05:12:32.089Z,101332.46
2023-11-22T05:15:00.000Z,101330.79
2023-11-22T05:17:27.981Z,101333.21
2023-11-22T05:19:55.890Z,101334.98
2023-11-22T05:22:24.275Z,101344.52
2023-11-22T05:24:52.153Z,101342.67
2023-11-22T05:27:22.164Z,101342.86
2023-11-22T05:29:55.054Z,101346.69
2023-11-22T05:32:30.493Z,101347.92
2023-11-22T05:34:58.775Z,101345.52
2023-11-22T05:37:27.733Z,101345.35
2023-11-22T05:39:56.881Z,101350.77
2023-11-22T05:42:26.248Z,101358.27
2023-11-22T05:44:54.424Z,101354.77
2023-11-22T05:47:22.329Z,101359.91
2023-11-22T05:49:50.721Z,101365.76
2023-11-22T05:52:18.857Z,101360.38
2023-11-22T05:54:46.839Z,101364.87
2023-11-22T05:57:14.709Z,101359.53
2023-11-22T05:59:42.588Z,101364.05
2023-11-22T06:02:10.666Z,101363.36
2023-11-22T06:04:39.571Z,101365.27
2023-11-22T06:07:09.888Z,101368.04
2023-11-22T06:09:37.700Z,101369.30
2023-11-22T06:12:06.624Z,101371.65
2023-11-22T06:14:34.605Z,101367.42
2023-11-22T06:17:02.838Z,101368.46
2023-11-22T06:19:30.719Z,101367.08
2023-11-22T06:22:03.907Z,101366.63
2023-11-22T06:24:37.515Z,101367.77
2023-11-22T06:27:06.938Z,101371.64
2023-11-22T06:29:34.902Z,101366.55
2023-11-22T06:32:02.658Z,101358.34
2023-11-22T06:34:30.601Z,101355.77
2023-11-22T06:36:58.986Z,101357.02
2023-11-22T06:39:28.334Z,101353.09
2023-11-22T06:41:56.561Z,101353.97
2023-11-22T06:44:24.679Z,101353.80
2023-11-22T06:46:53.316Z,101347.59
2023-11-22T06:49:22.208Z,101352.30
2023-11-22T06:51:50.388Z,101352.71
2023-11-22T06:54:19.996Z,101345.40
2023-11-22T06:56:51.708Z,101339.71
2023-11-22T06:59:20.303Z,101341.93
2023-11-22T07:01:48.243Z,101349.37
2023-11-22T07:04:16.265Z,101351.29
2023-11-22T07:06:45.692Z,101355.47
2023-11-22T07:09:15.323Z,101354.50
2023-11-22T07:11:45.877Z,101348.96
2023-11-22T07:14:13.864Z,101343.75
2023-11-22T07:16:42.402Z,101339.67
2023-11-22T07:19:14.042Z,101337.54
2023-11-22T07:21:42.359Z,101337.62
2023-11-22T07:24:10.609Z,101337.52
2023-11-22T07:26:41.698Z,101343.33
2023-11-22T07:29:11.756Z,101347.89
2023-11-22T07:31:42.009Z,101358.70
2023-11-22T07:34:14.432Z,101356.80
2023-11-22T07:36:42.333Z,101360.31
2023-11-22T07:39:13.392Z,101355.70
2023-11-22T07:41:43.135Z,101345.73
2023-11-22T07:44:14.632Z,101341.36
2023-11-22T07:46:45.411Z,101349.86
2023-11-22T07:49:15.261Z,101359.25
2023-11-22T07:53:57.172Z,101386.08
2023-11-22T07:56:25.365Z,101390.89
2023-11-22T07:58:53.223Z,101388.30
2023-11-22T08:01:24.935Z,101384.34
2023-11-22T08:03:53.454Z,101382.04
2023-11-22T08:06:22.759Z,101384.70
2023-11-22T08:08:55.633Z,101387.63
2023-11-22T08:11:23.627Z,101384.83
2023-11-22T08:13:51.477Z,101377.89
2023-11-22T08:16:21.739Z,101378.48
2023-11-22T08:18:51.016Z,101381.52
2023-11-22T08:21:19.897Z,101386.44
2023-11-22T08:23:51.298Z,101386.14
2023-11-22T08:26:23.033Z,101386.73
2023-11-22T08:28:58.174Z,101381.43
2023-11-22T08:31:29.336Z,101379.02
2023-11-22T08:33:58.174Z,101379.22
2023-11-22T08:36:26.886Z,101383.13
2023-11-22T08:38:55.280Z,101377.08
2023-11-22T08:41:25.281Z,101369.63
2023-11-22T08:43:53.737Z,101362.48
2023-11-22T08:46:21.630Z,101358.23
2023-11-22T08:48:49.883Z,101361.89
2023-11-22T08:51:19.788Z,101361.05
2023-11-22T08:53:48.018Z,101355.77
2023-11-22T08:56:17.398Z,101349.34
2023-11-22T08:58:45.839Z,101351.25
2023-11-22T09:01:16.134Z,101351.83
2023-11-22T09:03:45.408Z,101354.89
2023-11-22T09:06:14.568Z,101355.94
2023-11-22T09:08:42.769Z,101346.28
2023-11-22T09:11:11.687Z,101336.23
2023-11-22T09:13:49.868Z,101334.13
2023-11-22T09:16:19.842Z,101333.99
2023-11-22T09:18:49.566Z,101334.56
2023-11-22T09:21:20.622Z,101337.61
2023-11-22T09:23:53.747Z,101328.27
2023-11-22T09:26:23.007Z,101318.91
2023-11-22T09:28:51.273Z,101320.80
2023-11-22T09:31:21.900Z,101320.64
2023-11-22T09:33:49.808Z,101319.09
2023-11-22T09:36:19.540Z,101321.02
2023-11-22T09:38:48.801Z,101326.10
2023-11-22T09:41:20.064Z,101325.70
2023-11-22T09:44:00.652Z,101317.60
2023-11-22T09:46:34.263Z,101315.16
2023-11-22T09:49:05.541Z,101313.67
2023-11-22T09:51:44.401Z,101306.55
2023-11-22T09:54:15.727Z,101305.17
2023-11-22T09:56:54.670Z,101301.66
2023-11-22T09:59:24.936Z,101305.39
2023-11-22T10:02:01.057Z,101308.98
2023-11-22T10:04:30.631Z,101307.59
2023-11-22T10:07:01.570Z,101307.55
2023-11-22T10:09:31.311Z,101305.43
2023-11-22T10:12:04.171Z,101303.69
2023-11-22T10:14:46.115Z,101306.23
2023-11-22T10:17:31.734Z,101315.84
2023-11-22T10:20:12.630Z,101323.77
2023-11-22T10:22:50.536Z,101319.53
2023-11-22T10:25:25.509Z,101318.42
2023-11-22T10:27:57.048Z,101312.33
2023-11-22T10:30:30.342Z,101310.42
2023-11-22T10:32:59.011Z,101315.26
2023-11-22T10:35:47.453Z,101321.40
2023-11-22T10:38:19.855Z,101320.70
2023-11-22T10:40:53.668Z,101312.30
2023-11-22T10:43:33.894Z,101313.73
2023-11-22T10:46:13.683Z,101311.98
2023-11-22T10:48:42.044Z,101312.54
2023-11-22T10:51:10.998Z,101315.10
2023-11-22T10:53:41.693Z,101317.91
2023-11-22T10:56:29.717Z,101321.71
2023-11-22T10:59:15.603Z,101330.18
2023-11-22T11:01:54.550Z,101325.46
2023-11-22T11:04:33.818Z,101324.41
2023-11-22T11:07:17.250Z,101331.02
2023-11-22T11:09:52.451Z,101335.90
2023-11-22T11:12:29.583Z,101337.30
2023-11-22T11:15:22.946Z,101329.86
2023-11-22T11:18:02.844Z,101328.28
2023-11-22T11:20:49.164Z,101332.24
2023-11-22T11:23:30.148Z,101327.24
2023-11-22T11:26:02.030Z,101330.66
2023-11-22T11:28:47.316Z,101331.69
2023-11-22T11:31:15.846Z,101331.77
2023-11-22T11:33:49.890Z,101331.94
2023-11-22T11:36:33.362Z,101326.23
2023-11-22T11:39:16.964Z,101322.61
2023-11-22T11:41:50.579Z,101320.24
2023-11-22T11:44:25.742Z,101319.06
2023-11-22T11:46:59.401Z,101319.59
2023-11-22T11:49:30.667Z,101313.52
2023-11-22T11:52:01.413Z,101317.11
2023-11-22T11:54:29.372Z,101318.80
2023-11-22T11:57:03.573Z,101313.60
2023-11-22T11:59:42.042Z,101314.29
2023-11-22T12:02:28.188Z,101313.73
2023-11-22T12:05:11.161Z,101319.97
2023-11-22T12:07:48.181Z,101319.23
2023-11-22T12:10:24.455Z,101315.56
2023-11-22T12:13:11.160Z,101314.54
2023-11-22T12:15:43.731Z,101313.78
2023-11-22T12:18:19.003Z,101307.81
2023-11-22T12:21:00.837Z,101314.65
2023-11-22T12:23:31.431Z,101317.90
2023-11-22T12:25:59.791Z,101317.87
2023-11-22T12:28:34.643Z,101313.74
2023-11-22T12:31:16.600Z,101317.86
2023-11-22T12:33:44.887Z,101320.74
2023-11-22T12:36:17.878Z,101317.94
2023-11-22T12:39:00.295Z,101317.13
2023-11-22T12:41:33.091Z,101319.88
2023-11-22T12:44:11.783Z,101312.77
2023-11-22T12:47:03.138Z,101310.18
2023-11-22T12:49:31.205Z,101312.95
2023-11-22T12:51:59.236Z,101316.91
2023-11-22T12:54:27.705Z,101321.02
2023-11-22T12:57:07.408Z,101320.08
2023-11-22T12:59:35.765Z,101315.85
2023-11-22T13:02:04.435Z,101311.99
2023-11-22T13:04:32.768Z,101312.82
2023-11-22T13:07:01.863Z,101316.44
2023-11-22T13:09:38.653Z,101321.61
2023-11-22T13:12:12.415Z,101320.55
2023-11-22T13:14:45.749Z,101320.34
2023-11-22T13:17:26.378Z,101321.87
2023-11-22T13:20:01.592Z,101324.48
2023-11-22T13:22:44.418Z,101319.11
2023-11-22T13:25:14.929Z,101322.34
2023-11-22T13:27:42.700Z,101323.58
2023-11-22T13:30:11.584Z,101318.39
2023-11-22T13:32:42.846Z,101317.89
2023-11-22T13:35:19.324Z,101324.25
2023-11-22T13:37:53.934Z,101324.11
2023-11-22T13:40:34.696Z,101331.77
2023-11-22T13:43:05.832Z,101333.05
2023-11-22T13:45:47.849Z,101329.69
2023-11-22T13:48:20.997Z,101335.30
2023-11-22T13:50:53.848Z,101329.70
2023-11-22T13:53:23.723Z,101328.28
2023-11-22T13:55:53.896Z,101330.83
2023-11-22T13:58:21.823Z,101327.66
2023-11-22T14:00:51.473Z,101321.20
2023-11-22T14:03:40.917Z,101313.66
2023-11-22T14:06:25.974Z,101315.46
2023-11-22T14:09:04.571Z,101311.23
2023-11-22T14:11:39.038Z,101316.83
2023-11-22T14:14:14.634Z,101326.15
2023-11-22T14:16:46.239Z,101331.86
2023-11-22T14:19:18.694Z,101330.36
2023-11-22T14:21:46.905Z,101334.60
2023-11-22T14:24:14.732Z,101332.31
2023-11-22T14:26:42.694Z,101331.38
2023-11-22T14:29:10.774Z,101329.93
2023-11-22T14:31:38.871Z,101330.52
2023-11-22T14:34:07.033Z,101327.16
2023-11-22T14:36:35.294Z,101320.05
2023-11-22T14:39:14.023Z,101320.32
2023-11-22T14:41:43.697Z,101319.35
2023-11-22T14:44:11.600Z,101322.74
2023-11-22T14:46:39.687Z,101321.17
2023-11-22T14:49:10.092Z,101326.84
2023-11-22T14:51:49.838Z,101334.42
2023-11-22T14:54:18.872Z,101335.72
2023-11-22T14:56:47.464Z,101333.21
2023-11-22T14:59:15.383Z,101337.27
2023-11-22T15:01:45.734Z,101342.15
2023-11-22T15:04:20.571Z,101346.67
2023-11-22T15:06:54.248Z,101351.26
2023-11-22T15:09:28.504Z,101356.55
2023-11-22T15:11:56.560Z,101360.64
2023-11-22T15:14:24.844Z,101355.55
2023-11-22T15:16:53.622Z,101354.25
2023-11-22T15:19:26.481Z,101353.15
2023-11-22T15:21:59.210Z,101357.05
2023-11-22T15:24:27.893Z,101364.02
2023-11-22T15:27:09.858Z,101367.71
2023-11-22T15:29:42.775Z,101370.61
2023-11-22T15:32:10.798Z,101367.20
2023-11-22T15:34:39.294Z,101369.14
2023-11-22T15:37:08.218Z,101370.38
2023-11-22T15:39:36.555Z,101374.61
2023-11-22T15:42:07.000Z,101373.38
2023-11-22T15:44:38.192Z,101379.03
2023-11-22T15:47:12.881Z,101382.74
2023-11-22T15:49:43.178Z,101386.27
2023-11-22T15:52:14.120Z,101399.73
2023-11-22T15:54:42.089Z,101400.75
2023-11-22T15:57:10.783Z,101398.30
2023-11-22T15:59:40.137Z,101395.69
2023-11-22T16:02:08.660Z,101401.92
2023-11-22T16:04:38.378Z,101403.85
2023-11-22T16:07:07.563Z,101402.96
2023-11-22T16:09:40.092Z,101403.14
2023-11-22T16:12:08.846Z,101404.88
2023-11-22T16:14:37.097Z,101401.98
2023-11-22T16:17:06.416Z,101397.67
2023-11-22T16:19:34.170Z,101399.54
2023-11-22T16:22:02.064Z,101399.18
2023-11-22T16:24:30.111Z,101400.78
2023-11-22T16:26:58.598Z,101397.41
2023-11-22T16:29:26.894Z,101392.14
2023-11-22T16:31:54.882Z,101389.45
2023-11-22T16:34:23.320Z,101387.73
2023-11-22T16:36:56.418Z,101389.66
2023-11-22T16:39:29.798Z,101388.82
2023-11-22T16:42:01.008Z,101394.68
2023-11-22T16:44:30.027Z,101393.98
2023-11-22T16:47:00.145Z,101392.35
2023-11-22T16:49:28.541Z,101393.98
2023-11-22T16:51:56.924Z,101391.33
2023-11-22T16:54:24.788Z,101391.75
2023-11-22T16:56:52.829Z,101396.85
2023-11-22T16:59:20.842Z,101394.20
2023-11-22T17:01:49.138Z,101395.52
2023-11-22T17:04:18.093Z,101394.48
2023-11-22T17:06:45.966Z,101396.20
2023-11-22T17:09:17.395Z,101396.87
2023-11-22T17:11:46.325Z,101401.66
2023-11-22T17:14:14.582Z,101407.80
2023-11-22T17:16:45.237Z,101409.48
2023-11-22T17:19:14.415Z,101410.00
2023-11-22T17:21:42.691Z,101405.84
2023-11-22T17:24:11.584Z,101403.56
2023-11-22T17:26:40.083Z,101400.42
2023-11-22T17:29:08.156Z,101404.14
2023-11-22T17:31:36.521Z,101407.88
2023-11-22T17:34:04.918Z,101405.40
2023-11-22T17:36:33.548Z,101404.08
2023-11-22T17:39:01.584Z,101411.27
2023-11-22T17:41:29.880Z,101410.87
2023-11-22T17:43:58.735Z,101415.31
2023-11-22T17:46:28.007Z,101413.39
2023-11-22T17:48:58.186Z,101408.54
2023-11-22T17:51:28.367Z,101402.42
2023-11-22T17:53:56.651Z,101402.94
2023-11-22T17:56:25.260Z,101408.43
2023-11-22T17:58:53.300Z,101407.94
2023-11-22T18:01:21.894Z,101398.95
2023-11-22T18:03:52.501Z,101395.29
2023-11-22T18:06:20.929Z,101400.27
2023-11-22T18:08:48.951Z,101406.16
2023-11-22T18:11:17.596Z,101409.97
2023-11-22T18:13:46.229Z,101410.48
2023-11-22T18:16:14.016Z,101409.08
2023-11-22T18:18:42.630Z,101406.50
2023-11-22T18:21:11.911Z,101405.63
2023-11-22T18:23:39.988Z,101408.19
2023-11-22T18:26:07.821Z,101412.48
2023-11-22T18:28:36.332Z,101414.87
2023-11-22T18:31:07.458Z,101417.82
2023-11-22T18:33:36.455Z,101417.48
2023-11-22T18:38:50.761Z,101420.95
2023-11-22T18:41:20.840Z,101420.55
2023-11-22T18:43:49.444Z,101417.27
2023-11-22T18:46:18.268Z,101413.64
2023-11-22T18:48:46.882Z,101408.10
2023-11-22T18:51:28.676Z,101414.00
2023-11-22T18:53:57.507Z,101413.42
2023-11-22T18:56:26.556Z,101410.39
2023-11-22T18:58:56.458Z,101409.14
2023-11-22T19:01:24.667Z,101412.37
2023-11-22T19:03:52.827Z,101409.59
2023-11-22T19:06:20.919Z,101410.46
2023-11-22T19:08:49.318Z,101405.44
2023-11-22T19:11:18.712Z,101405.27
2023-11-22T19:13:47.056Z,101405.44
2023-11-22T19:16:15.278Z,101403.21
2023-11-22T19:18:46.942Z,101408.78
2023-11-22T19:21:23.045Z,101413.00
2023-11-22T19:23:56.388Z,101410.70
2023-11-22T19:26:24.932Z,101412.48
2023-11-22T19:28:53.629Z,101412.66
2023-11-22T19:31:24.189Z,101413.02
2023-11-22T19:33:52.314Z,101414.44
2023-11-22T19:36:24.467Z,101421.04
2023-11-22T19:38:55.934Z,101431.13
2023-11-22T19:41:24.993Z,101430.54
2023-11-22T19:43:53.855Z,101425.11
2023-11-22T19:46:21.840Z,101427.45
2023-11-22T19:48:49.921Z,101424.60
2023-11-22T19:51:18.957Z,101432.27
2023-11-22T19:53:47.089Z,101433.52
2023-11-22T19:56:15.523Z,101434.98
2023-11-22T19:58:43.380Z,101433.67
2023-11-22T20:01:11.488Z,101438.10
2023-11-22T20:03:39.465Z,101438.57
2023-11-22T20:06:07.450Z,101435.77
2023-11-22T20:08:37.211Z,101437.27
2023-11-22T20:12:17.782Z,101465.48
2023-11-22T20:14:46.012Z,101475.20
2023-11-22T20:17:13.946Z,101466.58
2023-11-22T20:19:41.882Z,101455.48
2023-11-22T20:22:13.682Z,101458.90
2023-11-22T20:24:41.925Z,101462.20
2023-11-22T20:27:09.844Z,101461.02
2023-11-22T20:29:40.025Z,101456.95
2023-11-22T20:32:08.084Z,101457.96
2023-11-22T20:34:36.017Z,101463.96
2023-11-22T20:37:05.146Z,101459.70
2023-11-22T20:39:33.731Z,101463.21
2023-11-22T20:42:01.624Z,101461.46
2023-11-22T20:44:29.669Z,101457.70
2023-11-22T20:46:57.951Z,101458.41
2023-11-22T20:49:27.508Z,101458.23
2023-11-22T20:51:55.733Z,101464.59
2023-11-22T20:54:23.600Z,101463.27
2023-11-22T20:56:51.788Z,101458.29
2023-11-22T20:59:19.739Z,101455.05
2023-11-22T21:01:49.398Z,101457.32
2023-11-22T21:04:17.528Z,101453.75
2023-11-22T21:06:46.747Z,101448.50
2023-11-22T21:09:15.021Z,101452.89
2023-11-22T21:11:43.441Z,101454.88
2023-11-22T21:14:11.912Z,101461.30
2023-11-22T21:16:44.193Z,101459.95
2023-11-22T21:19:15.116Z,101462.60
2023-11-22T21:21:43.247Z,101465.75
2023-11-22T21:24:11.413Z,101464.52
2023-11-22T21:26:39.615Z,101464.16
2023-11-22T21:29:07.867Z,101456.60
2023-11-22T21:31:35.733Z,101455.25
2023-11-22T21:34:04.150Z,101453.06
2023-11-22T21:36:36.916Z,101456.00
2023-11-22T21:39:13.926Z,101456.56
2023-11-22T21:41:50.481Z,101454.55
2023-11-22T21:44:21.703Z,101446.40
2023-11-22T21:46:49.640Z,101441.46
2023-11-22T21:49:17.874Z,101439.42
2023-11-22T21:51:48.201Z,101435.83
2023-11-22T21:54:16.150Z,101439.27
2023-11-22T21:56:44.823Z,101436.52
2023-11-22T21:59:13.463Z,101433.46
2023-11-22T22:01:42.343Z,101430.88
2023-11-22T22:04:10.980Z,101420.25
2023-11-22T22:06:39.458Z,101419.95
2023-11-22T22:09:18.042Z,101417.73
2023-11-22T22:11:56.119Z,101419.50
2023-11-22T22:14:25.524Z,101408.16
2023-11-22T22:16:54.487Z,101410.45
2023-11-22T22:19:22.980Z,101414.98
2023-11-22T22:21:50.931Z,101418.45
2023-11-22T22:24:19.072Z,101418.65
2023-11-22T22:26:47.317Z,101422.77
2023-11-22T22:29:15.350Z,101431.60
2023-11-22T22:31:43.120Z,101431.96
2023-11-22T22:34:10.985Z,101431.13
2023-11-22T22:36:40.531Z,101433.14
2023-11-22T22:39:08.808Z,101438.41
2023-11-22T22:41:36.770Z,101443.55
2023-11-22T22:44:05.833Z,101451.45
2023-11-22T22:46:34.473Z,101456.90
2023-11-22T22:49:03.006Z,101453.84
2023-11-22T22:51:32.705Z,101443.02
2023-11-22T22:54:04.417Z,101443.41
2023-11-22T22:56:32.741Z,101444.84
2023-11-22T22:59:01.289Z,101449.34
2023-11-22T23:01:31.634Z,101450.77
2023-11-22T23:03:59.900Z,101448.19
2023-11-22T23:06:28.204Z,101447.01
2023-11-22T23:08:57.363Z,101447.02
2023-11-22T23:11:26.138Z,101450.43
2023-11-22T23:13:54.059Z,101446.98
2023-11-22T23:16:22.042Z,101448.88
2023-11-22T23:18:57.966Z,101452.34
2023-11-22T23:21:29.181Z,101448.04
2023-11-22T23:23:57.535Z,101448.73
2023-11-22T23:26:27.073Z,101451.70
2023-11-22T23:28:56.055Z,101454.30
2023-11-22T23:31:24.189Z,101459.99
2023-11-22T23:33:54.366Z,101465.45
2023-11-22T23:36:23.927Z,101468.06
2023-11-22T23:38:52.207Z,101472.46
2023-11-22T23:41:20.255Z,101479.24
2023-11-22T23:43:48.120Z,101480.58
2023-11-22T23:46:16.233Z,101484.80
2023-11-22T23:48:44.751Z,101489.23
2023-11-22T23:51:12.952Z,101486.80
2023-11-22T23:53:41.268Z,101484.36
2023-11-22T23:56:11.763Z,101485.73
2023-11-22T23:58:41.084Z,101485.19
